Time;durP1;ratioP1;P1;durP2;ratioP2;P2;SDS_P1;SDS_P2;PMS_P1;PMS_P2;Temp;Humidity;BMP_temperature;BMP_pressure;BME280_temperature;BME280_humidity;BME280_pressure;Samples;Min_cycle;Max_cycle;Signal;HPM_P1;HPM_P2
2021/10/04 00:00:17;;;;;;;15.23;8.85;;;333.20;2329.60;;;;;;5113729;28;20440;-63
2021/10/04 00:02:43;;;;;;;15.90;8.65;;;333.10;2329.60;;;;;;5113592;28;20476;-64
2021/10/04 00:05:10;;;;;;;14.82;8.20;;;333.00;2329.60;;;;;;5113592;28;20477;-65
2021/10/04 00:07:37;;;;;;;14.25;8.93;;;333.00;2329.60;;;;;;5110706;28;20035;-66
2021/10/04 00:10:08;;;;;;;15.38;9.15;;;332.90;2329.60;;;;;;5113583;28;20027;-65
2021/10/04 00:12:34;;;;;;;14.50;9.02;;;332.90;2329.60;;;;;;5113336;28;20035;-65
2021/10/04 00:15:00;;;;;;;16.92;8.32;;;332.90;2329.60;;;;;;5113492;28;20019;-65
2021/10/04 00:17:26;;;;;;;14.30;8.93;;;333.00;2329.60;;;;;;5113294;28;20020;-65
2021/10/04 00:19:51;;;;;;;15.88;8.43;;;333.00;2329.60;;;;;;5112477;28;20032;-65
2021/10/04 00:22:17;;;;;;;20.27;9.35;;;333.00;2329.60;;;;;;5113613;28;20073;-66
2021/10/04 00:24:43;;;;;;;14.45;8.80;;;307.90;2304.00;;;;;;5112868;28;20030;-65
2021/10/04 00:27:08;;;;;;;13.07;8.77;;;333.10;2329.60;;;;;;5113330;28;20054;-65
2021/10/04 00:29:34;;;;;;;14.32;8.73;;;333.10;2329.60;;;;;;5112978;28;20464;-66
2021/10/04 00:32:00;;;;;;;14.80;8.98;;;333.10;2329.60;;;;;;5112957;28;20038;-65
2021/10/04 00:34:25;;;;;;;17.38;8.95;;;333.10;2329.60;;;;;;5113034;28;20012;-65
2021/10/04 00:36:51;;;;;;;13.95;8.55;;;333.10;2329.60;;;;;;5112889;28;20100;-65
2021/10/04 00:39:17;;;;;;;14.63;8.90;;;333.10;2329.60;;;;;;5113293;28;20018;-66
2021/10/04 00:41:43;;;;;;;14.63;9.13;;;333.00;2329.60;;;;;;5113104;28;20477;-65
2021/10/04 00:44:09;;;;;;;18.20;10.48;;;333.20;2329.60;;;;;;5112598;28;20038;-66
2021/10/04 00:46:35;;;;;;;18.02;10.63;;;333.20;2329.60;;;;;;5111625;28;20028;-66
2021/10/04 00:49:01;;;;;;;16.98;9.90;;;333.20;2329.60;;;;;;5113066;28;20066;-65
2021/10/04 00:51:27;;;;;;;20.52;10.98;;;333.20;2329.60;;;;;;5112774;28;20031;-65
2021/10/04 00:53:53;;;;;;;22.23;12.85;;;333.20;2329.60;;;;;;5111068;28;20057;-64
2021/10/04 00:56:21;;;;;;;21.27;11.50;;;333.20;2329.60;;;;;;5112572;28;20079;-65
2021/10/04 00:58:48;;;;;;;16.02;9.60;;;333.20;2329.60;;;;;;5112452;28;20020;-65
2021/10/04 01:01:13;;;;;;;18.25;9.60;;;333.20;2329.60;;;;;;5112688;28;20011;-63
2021/10/04 01:03:39;;;;;;;17.38;10.63;;;333.20;2329.60;;;;;;5112590;28;20086;-65
2021/10/04 01:06:05;;;;;;;18.52;10.35;;;333.20;2329.60;;;;;;5112769;28;20023;-65
2021/10/04 01:08:31;;;;;;;17.73;10.15;;;333.20;2329.60;;;;;;5112375;28;20575;-66
2021/10/04 01:10:57;;;;;;;17.20;9.90;;;333.20;2329.60;;;;;;5112619;28;20059;-65
2021/10/04 01:13:23;;;;;;;16.73;10.20;;;333.10;2329.60;;;;;;5112741;28;20035;-66
2021/10/04 01:15:49;;;;;;;18.80;10.32;;;333.10;2329.60;;;;;;5112219;28;20397;-65
2021/10/04 01:18:14;;;;;;;19.33;10.68;;;333.10;2329.60;;;;;;5112974;28;20029;-65
2021/10/04 01:20:41;;;;;;;16.90;10.40;;;333.10;2329.60;;;;;;5112766;28;20423;-63
2021/10/04 01:23:06;;;;;;;19.65;10.30;;;333.10;2329.60;;;;;;5112940;28;20030;-65
2021/10/04 01:25:32;;;;;;;15.95;10.23;;;333.00;2329.60;;;;;;5112902;28;20030;-65
2021/10/04 01:27:58;;;;;;;16.83;10.65;;;333.00;2329.60;;;;;;5112697;28;20027;-64
2021/10/04 01:30:27;;;;;;;15.93;10.27;;;333.00;2329.60;;;;;;5105136;28;20020;-64
2021/10/04 01:32:53;;;;;;;16.13;9.43;;;333.00;2329.60;;;;;;5091534;28;20118;-65
2021/10/04 01:35:20;;;;;;;14.10;9.18;;;332.90;2329.60;;;;;;5090956;28;20061;-66
2021/10/04 01:37:46;;;;;;;19.95;9.48;;;332.90;2329.60;;;;;;5091626;28;20469;-65
2021/10/04 01:40:13;;;;;;;13.43;9.07;;;332.90;2329.60;;;;;;5090815;28;20033;-65
2021/10/04 01:42:39;;;;;;;13.32;8.80;;;332.80;2329.60;;;;;;5091735;28;20024;-63
2021/10/04 01:45:08;;;;;;;15.63;9.00;;;332.90;2329.60;;;;;;5090333;28;20050;-64
2021/10/04 01:47:33;;;;;;;15.20;9.23;;;332.90;2329.60;;;;;;5091488;28;20036;-63
2021/10/04 01:49:59;;;;;;;14.68;9.35;;;332.80;2329.60;;;;;;5091400;28;20139;-66
2021/10/04 01:52:25;;;;;;;14.23;9.63;;;332.80;2329.60;;;;;;5090636;28;20036;-64
2021/10/04 01:54:50;;;;;;;14.20;9.10;;;332.80;2329.60;;;;;;5103181;28;20024;-65
2021/10/04 01:57:16;;;;;;;17.38;9.73;;;332.80;2329.60;;;;;;5110860;28;20015;-64
2021/10/04 01:59:42;;;;;;;14.82;9.85;;;332.80;2329.60;;;;;;5111175;28;20034;-63
2021/10/04 02:02:08;;;;;;;15.05;9.40;;;308.10;2304.00;;;;;;5110895;28;20517;-64
2021/10/04 02:04:34;;;;;;;17.08;9.82;;;308.00;2304.00;;;;;;5111605;28;20120;-63
2021/10/04 02:07:00;;;;;;;15.98;9.70;;;308.00;2304.00;;;;;;5111526;28;20089;-62
2021/10/04 02:09:26;;;;;;;16.80;10.02;;;308.00;2304.00;;;;;;5112635;28;20073;-64
2021/10/04 02:11:52;;;;;;;16.75;9.90;;;308.00;2304.00;;;;;;5115144;27;20040;-63
2021/10/04 02:14:18;;;;;;;14.20;10.07;;;308.00;2304.00;;;;;;5114391;28;20024;-63
2021/10/04 02:16:44;;;;;;;17.08;9.45;;;308.00;2304.00;;;;;;5115124;28;20392;-64
2021/10/04 02:19:11;;;;;;;15.23;9.80;;;308.00;2304.00;;;;;;5114423;28;20023;-63
2021/10/04 02:21:36;;;;;;;16.70;10.13;;;307.90;2304.00;;;;;;5114908;28;20042;-64
2021/10/04 02:24:02;;;;;;;18.13;11.60;;;307.90;2304.00;;;;;;5114903;28;20118;-61
2021/10/04 02:26:28;;;;;;;19.20;11.20;;;307.80;2304.00;;;;;;5114471;28;20084;-64
2021/10/04 02:28:54;;;;;;;18.70;11.05;;;307.80;2304.00;;;;;;5114549;28;20077;-63
2021/10/04 02:31:20;;;;;;;18.70;12.38;;;307.80;2304.00;;;;;;5114310;28;20101;-63
2021/10/04 02:33:46;;;;;;;20.15;13.52;;;307.80;2304.00;;;;;;5114424;28;20019;-62
2021/10/04 02:36:12;;;;;;;18.00;13.00;;;307.70;2304.00;;;;;;5113310;27;20036;-63
2021/10/04 02:38:37;;;;;;;20.50;14.20;;;307.70;2304.00;;;;;;5115222;28;20069;-63
2021/10/04 02:41:03;;;;;;;25.35;14.32;;;307.70;2304.00;;;;;;5114306;28;20032;-62
2021/10/04 02:43:29;;;;;;;19.90;13.00;;;307.70;2304.00;;;;;;5113960;28;20057;-64
2021/10/04 02:45:55;;;;;;;21.23;12.38;;;307.70;2304.00;;;;;;5114825;28;20047;-65
2021/10/04 02:48:20;;;;;;;21.60;12.30;;;307.70;2304.00;;;;;;5113677;28;20016;-63
2021/10/04 02:50:47;;;;;;;17.95;10.90;;;307.70;2304.00;;;;;;5114479;28;20042;-62
2021/10/04 02:53:13;;;;;;;17.73;10.27;;;307.70;2304.00;;;;;;5113788;28;20058;-62
2021/10/04 02:55:39;;;;;;;15.50;9.88;;;307.70;2304.00;;;;;;5114293;28;20473;-67
2021/10/04 02:58:05;;;;;;;16.48;9.85;;;307.70;2304.00;;;;;;5113209;28;20024;-65
2021/10/04 03:00:36;;;;;;;16.38;9.55;;;307.70;2304.00;;;;;;5114255;28;20156;-67
2021/10/04 03:03:03;;;;;;;16.80;10.13;;;307.70;2304.00;;;;;;5114184;28;20384;-65
2021/10/04 03:05:30;;;;;;;14.60;10.13;;;307.60;2304.00;;;;;;5114114;28;20096;-67
2021/10/04 03:07:57;;;;;;;16.88;10.18;;;307.60;2304.00;;;;;;5114082;28;20052;-67
2021/10/04 03:10:23;;;;;;;15.57;9.80;;;307.60;2304.00;;;;;;5113524;28;20042;-66
2021/10/04 03:12:48;;;;;;;16.15;10.07;;;307.60;2304.00;;;;;;5113301;28;20031;-67
2021/10/04 03:15:14;;;;;;;14.35;10.07;;;307.50;2304.00;;;;;;5113100;27;20024;-67
2021/10/04 03:17:40;;;;;;;15.05;10.38;;;307.50;2304.00;;;;;;5114137;28;20032;-67
2021/10/04 03:20:06;;;;;;;16.17;10.10;;;307.50;2304.00;;;;;;5112865;28;20024;-66
2021/10/04 03:22:32;;;;;;;21.25;10.63;;;307.50;2304.00;;;;;;5113344;28;20110;-66
2021/10/04 03:24:58;;;;;;;18.52;10.68;;;307.50;2304.00;;;;;;5113885;28;20051;-67
2021/10/04 03:27:23;;;;;;;17.65;10.57;;;307.50;2304.00;;;;;;5112660;28;20059;-66
2021/10/04 03:29:49;;;;;;;17.35;10.13;;;307.50;2304.00;;;;;;5113642;28;20428;-67
2021/10/04 03:32:16;;;;;;;18.73;10.90;;;307.40;2304.00;;;;;;5112805;28;20048;-67
2021/10/04 03:34:41;;;;;;;16.48;10.60;;;307.30;2304.00;;;;;;5114154;28;20016;-67
2021/10/04 03:37:07;;;;;;;17.67;10.38;;;307.30;2304.00;;;;;;5112581;28;20142;-67
2021/10/04 03:39:34;;;;;;;17.02;10.07;;;307.30;2304.00;;;;;;5113733;28;20020;-67
2021/10/04 03:42:00;;;;;;;16.75;10.25;;;307.30;2304.00;;;;;;5113580;27;20035;-67
2021/10/04 03:44:25;;;;;;;16.08;10.27;;;307.20;2304.00;;;;;;5111085;28;20055;-67
2021/10/04 03:46:51;;;;;;;16.25;10.18;;;307.30;2304.00;;;;;;5113491;28;20063;-66
2021/10/04 03:49:17;;;;;;;16.65;11.00;;;307.30;2304.00;;;;;;5112722;28;20024;-67
2021/10/04 03:51:43;;;;;;;20.38;11.00;;;307.30;2304.00;;;;;;5113427;28;20047;-67
2021/10/04 03:54:08;;;;;;;17.98;11.73;;;307.20;2304.00;;;;;;5112328;28;20897;-67
2021/10/04 03:56:34;;;;;;;17.80;10.98;;;307.20;2304.00;;;;;;5113223;28;20042;-67
2021/10/04 03:59:00;;;;;;;18.02;10.65;;;307.20;2304.00;;;;;;5112387;28;20020;-67
2021/10/04 04:01:27;;;;;;;14.73;11.05;;;307.20;2304.00;;;;;;5112150;28;20076;-67
2021/10/04 04:03:52;;;;;;;15.23;10.73;;;282.50;2278.40;;;;;;5113143;28;20031;-67
2021/10/04 04:06:19;;;;;;;18.38;10.82;;;307.20;2304.00;;;;;;5112233;28;20032;-66
2021/10/04 04:08:45;;;;;;;17.42;10.93;;;282.50;2278.40;;;;;;5112990;28;20069;-67
2021/10/04 04:11:11;;;;;;;21.98;11.32;;;307.20;2304.00;;;;;;5111698;28;20141;-66
2021/10/04 04:13:37;;;;;;;18.73;11.20;;;307.20;2304.00;;;;;;5112960;28;20047;-66
2021/10/04 04:16:04;;;;;;;16.13;11.02;;;307.20;2304.00;;;;;;5112853;28;20084;-66
2021/10/04 04:18:31;;;;;;;20.58;11.13;;;332.90;2329.60;;;;;;5111441;28;20024;-66
2021/10/04 04:20:57;;;;;;;14.77;10.82;;;307.20;2304.00;;;;;;5112898;28;20039;-67
2021/10/04 04:23:22;;;;;;;17.73;10.98;;;307.20;2304.00;;;;;;5112171;27;20032;-66
2021/10/04 04:25:48;;;;;;;16.10;10.98;;;307.20;2304.00;;;;;;5092495;28;20024;-65
2021/10/04 04:28:14;;;;;;;18.33;11.48;;;307.30;2304.00;;;;;;5109221;28;20027;-66
2021/10/04 04:30:40;;;;;;;17.10;11.00;;;307.30;2304.00;;;;;;5111463;28;20020;-66
2021/10/04 04:33:05;;;;;;;19.45;11.77;;;307.20;2304.00;;;;;;5111493;28;20110;-62
2021/10/04 04:35:31;;;;;;;17.73;11.18;;;307.20;2304.00;;;;;;5111141;28;20110;-66
2021/10/04 04:37:57;;;;;;;19.80;11.73;;;307.20;2304.00;;;;;;5112661;28;20055;-66
2021/10/04 04:40:22;;;;;;;19.00;12.63;;;307.20;2304.00;;;;;;5111796;28;20441;-66
2021/10/04 04:42:48;;;;;;;19.33;11.85;;;307.20;2304.00;;;;;;5111819;28;20035;-66
2021/10/04 04:45:17;;;;;;;21.52;12.18;;;307.20;2304.00;;;;;;5111312;28;20020;-66
2021/10/04 04:47:44;;;;;;;19.05;13.02;;;282.40;2278.40;;;;;;5112041;28;20039;-67
2021/10/04 04:50:10;;;;;;;20.60;13.00;;;282.50;2278.40;;;;;;5111136;28;20042;-66
2021/10/04 04:52:36;;;;;;;26.48;13.07;;;282.50;2278.40;;;;;;5112217;28;20036;-63
2021/10/04 04:55:03;;;;;;;23.02;13.45;;;307.20;2304.00;;;;;;5112186;28;20027;-61
2021/10/04 04:57:29;;;;;;;26.67;13.45;;;307.20;2304.00;;;;;;5111072;27;20563;-63
2021/10/04 04:59:55;;;;;;;23.08;13.27;;;307.20;2304.00;;;;;;5112225;28;20052;-65
2021/10/04 05:02:21;;;;;;;21.73;12.18;;;307.30;2304.00;;;;;;5111054;28;20118;-66
2021/10/04 05:04:46;;;;;;;17.73;12.35;;;307.30;2304.00;;;;;;5112297;28;20069;-65
2021/10/04 05:07:12;;;;;;;19.35;11.48;;;307.30;2304.00;;;;;;5111177;28;20092;-65
2021/10/04 05:09:38;;;;;;;20.42;11.65;;;307.50;2304.00;;;;;;5112289;28;20024;-65
2021/10/04 05:12:05;;;;;;;28.02;13.70;;;307.40;2304.00;;;;;;5110536;28;20050;-65
2021/10/04 05:14:31;;;;;;;22.30;13.20;;;307.50;2304.00;;;;;;5111979;28;20024;-66
2021/10/04 05:16:57;;;;;;;29.45;16.67;;;307.50;2304.00;;;;;;5111547;28;20074;-67
2021/10/04 05:19:22;;;;;;;49.90;29.17;;;307.50;2304.00;;;;;;5110657;28;20032;-67
2021/10/04 05:21:48;;;;;;;44.53;30.08;;;307.50;2304.00;;;;;;5111556;28;20051;-67
2021/10/04 05:24:14;;;;;;;37.00;25.10;;;307.50;2304.00;;;;;;5110113;28;20032;-65
2021/10/04 05:26:41;;;;;;;26.80;17.98;;;307.40;2304.00;;;;;;5110419;28;20418;-66
2021/10/04 05:29:07;;;;;;;41.42;28.58;;;307.40;2304.00;;;;;;5109659;28;20481;-65
2021/10/04 05:31:33;;;;;;;27.33;16.40;;;307.40;2304.00;;;;;;5108971;28;20055;-66
2021/10/04 05:33:59;;;;;;;21.45;13.70;;;307.50;2304.00;;;;;;5111037;28;20031;-67
2021/10/04 05:36:25;;;;;;;20.27;11.50;;;307.60;2304.00;;;;;;5110445;28;20032;-67
2021/10/04 05:38:51;;;;;;;16.88;10.85;;;307.70;2304.00;;;;;;5111922;28;20031;-66
2021/10/04 05:41:16;;;;;;;17.17;10.88;;;307.70;2304.00;;;;;;5110700;28;20102;-67
2021/10/04 05:43:42;;;;;;;17.42;10.30;;;307.80;2304.00;;;;;;5112572;28;20027;-66
2021/10/04 05:46:09;;;;;;;16.17;10.00;;;307.90;2304.00;;;;;;5115170;28;20015;-67
2021/10/04 05:48:36;;;;;;;21.20;11.00;;;308.00;2304.00;;;;;;5116035;28;20031;-63
2021/10/04 05:51:02;;;;;;;18.08;11.35;;;308.10;2304.00;;;;;;5115610;28;20110;-63
2021/10/04 05:53:28;;;;;;;17.23;11.00;;;332.80;2329.60;;;;;;5115257;28;20492;-63
2021/10/04 05:55:54;;;;;;;23.30;13.68;;;332.90;2329.60;;;;;;5115233;28;20035;-63
2021/10/04 05:58:19;;;;;;;23.20;16.83;;;333.10;2329.60;;;;;;5113164;28;20023;-67
2021/10/04 06:00:45;;;;;;;16.88;11.68;;;333.20;2329.60;;;;;;5115760;28;20028;-66
2021/10/04 06:03:11;;;;;;;18.73;10.82;;;333.40;2329.60;;;;;;5113913;28;20722;-68
2021/10/04 06:05:37;;;;;;;17.50;10.10;;;333.70;2329.60;;;;;;5115649;28;20023;-68
2021/10/04 06:08:02;;;;;;;18.08;10.25;;;358.40;2329.60;;;;;;5110403;27;20036;-69
2021/10/04 06:10:29;;;;;;;17.67;10.18;;;358.60;2329.60;;;;;;5115691;28;20388;-69
2021/10/04 06:12:54;;;;;;;15.15;10.02;;;358.90;2329.60;;;;;;5117093;28;20036;-65
2021/10/04 06:15:20;;;;;;;13.35;9.23;;;384.30;2329.60;;;;;;5117080;28;20466;-65
2021/10/04 06:17:46;;;;;;;15.43;9.80;;;410.10;2355.20;;;;;;5117238;28;20024;-66
2021/10/04 06:20:12;;;;;;;;;;;436.00;2304.00;;;;;;5115849;28;20027;-70
2021/10/04 06:22:39;;;;;;;12.93;9.40;;;486.60;2150.40;;;;;;5117008;28;19904;-70
2021/10/04 06:25:06;;;;;;;;;;;512.70;1971.20;;;;;;5117508;28;20034;-69
2021/10/04 06:27:31;;;;;;;;;;;563.20;1792.00;;;;;;5117205;28;19929;-66
2021/10/04 06:29:57;;;;;;;11.63;8.55;;;588.80;1664.00;;;;;;5116946;28;19903;-72
2021/10/04 06:32:23;;;;;;;14.52;8.70;;;614.60;1484.80;;;;;;5116716;28;20488;-66
2021/10/04 06:34:48;;;;;;;14.75;9.07;;;640.10;1382.40;;;;;;5116152;28;20031;-66
2021/10/04 06:37:14;;;;;;;10.55;7.88;;;640.90;1280.00;;;;;;5116770;28;20421;-68
2021/10/04 06:39:40;;;;;;;14.13;8.18;;;666.50;1228.80;;;;;;5114882;28;20035;-69
2021/10/04 06:42:06;;;;;;;11.05;8.75;;;691.80;1152.00;;;;;;5116121;28;20035;-67
2021/10/04 06:44:31;;;;;;;12.55;8.60;;;717.30;1100.80;;;;;;5116233;27;20507;-68
2021/10/04 06:46:57;;;;;;;14.25;8.07;;;742.40;1049.60;;;;;;5116579;27;20055;-68
2021/10/04 06:49:23;;;;;;;13.10;8.35;;;743.00;998.40;;;;;;5114907;28;20027;-68
2021/10/04 06:51:48;;;;;;;11.35;7.68;;;768.10;972.80;;;;;;5116412;28;20040;-66
2021/10/04 06:54:14;;;;;;;11.80;7.78;;;768.50;947.20;;;;;;5110615;28;20525;-66
2021/10/04 06:56:40;;;;;;;9.75;7.20;;;743.30;947.20;;;;;;5113783;28;20024;-67
2021/10/04 06:59:06;;;;;;;12.63;7.63;;;742.60;972.80;;;;;;5113986;27;20036;-68
2021/10/04 07:01:34;;;;;;;10.18;7.43;;;717.30;998.40;;;;;;5113627;28;20420;-70
2021/10/04 07:04:02;;;;;;;12.10;8.00;;;691.70;1024.00;;;;;;5114065;28;20118;-68
2021/10/04 07:06:28;;;;;;;11.65;7.90;;;666.40;1100.80;;;;;;5113069;28;20689;-68
2021/10/04 07:08:53;;;;;;;;;;;640.80;1126.40;;;;;;5113612;28;20071;-66
2021/10/04 07:11:21;;;;;;;11.90;7.90;;;640.30;1177.60;;;;;;5113345;28;19951;-66
2021/10/04 07:13:48;;;;;;;11.18;7.70;;;614.80;1228.80;;;;;;5113968;28;20448;-68
2021/10/04 07:16:15;;;;;;;11.63;8.15;;;589.60;1305.60;;;;;;5113362;27;20034;-65
2021/10/04 07:18:41;;;;;;;10.45;8.60;;;588.80;1356.80;;;;;;5113840;27;20041;-68
2021/10/04 07:21:08;;;;;;;12.48;7.95;;;564.00;1382.40;;;;;;5113836;28;20111;-65
2021/10/04 07:23:34;;;;;;;13.65;8.93;;;563.40;1408.00;;;;;;5112540;28;20088;-66
2021/10/04 07:26:00;;;;;;;11.07;8.90;;;538.40;1459.20;;;;;;5113845;28;20027;-69
2021/10/04 07:28:26;;;;;;;11.20;8.55;;;538.30;1484.80;;;;;;5113081;28;20042;-65
2021/10/04 07:30:51;;;;;;;12.02;8.50;;;537.90;1510.40;;;;;;5113971;28;20044;-68
2021/10/04 07:33:18;;;;;;;14.00;9.05;;;537.70;1561.60;;;;;;5112809;27;20448;-67
2021/10/04 07:35:43;;;;;;;13.15;8.75;;;537.80;1561.60;;;;;;5113487;28;20020;-66
2021/10/04 07:38:09;;;;;;;15.90;9.00;;;538.20;1510.40;;;;;;5112791;28;20114;-69
2021/10/04 07:40:35;;;;;;;11.32;7.90;;;564.00;1433.60;;;;;;5110551;28;20035;-70
2021/10/04 07:43:01;;;;;;;12.07;8.35;;;589.60;1356.80;;;;;;5110632;28;20032;-72
2021/10/04 07:45:26;;;;;;;15.35;9.55;;;640.40;1228.80;;;;;;5109758;28;20028;-70
2021/10/04 07:47:52;;;;;;;19.25;10.95;;;691.20;1152.00;;;;;;5111030;28;20448;-70
2021/10/04 07:50:18;;;;;;;13.02;9.13;;;717.60;1075.20;;;;;;5109596;27;20756;-69
2021/10/04 07:52:45;;;;;;;13.50;8.25;;;768.70;972.80;;;;;;5110136;28;20035;-70
2021/10/04 07:55:11;;;;;;;12.77;8.60;;;794.40;947.20;;;;;;5109686;28;20561;-69
2021/10/04 07:57:37;;;;;;;10.88;7.30;;;819.60;896.00;;;;;;5110005;28;20031;-70
2021/10/04 08:00:04;;;;;;;11.55;7.65;;;845.40;870.40;;;;;;5109933;28;20043;-69
2021/10/04 08:02:30;;;;;;;11.15;7.53;;;870.50;844.80;;;;;;5109442;28;20020;-70
2021/10/04 08:04:56;;;;;;;9.77;7.10;;;871.10;819.20;;;;;;5110120;28;20111;-67
2021/10/04 08:07:22;;;;;;;11.68;7.57;;;896.60;742.40;;;;;;5107782;28;20047;-64
2021/10/04 08:09:48;;;;;;;10.70;7.78;;;921.80;742.40;;;;;;5112696;27;20080;-64
2021/10/04 08:12:14;;;;;;;13.07;9.35;;;922.30;716.80;;;;;;5111922;28;20533;-65
2021/10/04 08:14:39;;;;;;;10.65;7.68;;;947.60;691.20;;;;;;5110830;28;20063;-65
2021/10/04 08:17:05;;;;;;;8.35;7.38;;;948.10;665.60;;;;;;5112819;28;20046;-68
2021/10/04 08:19:31;;;;;;;8.05;6.95;;;948.00;665.60;;;;;;5110373;28;20059;-66
2021/10/04 08:21:57;;;;;;;8.85;7.05;;;973.10;691.20;;;;;;5112920;28;20020;-65
2021/10/04 08:24:22;;;;;;;10.13;7.05;;;998.60;665.60;;;;;;5109439;28;20439;-66
2021/10/04 08:26:49;;;;;;;8.48;6.65;;;999.00;640.00;;;;;;5112557;28;20028;-65
2021/10/04 08:29:15;;;;;;;10.95;6.85;;;1024.10;614.40;;;;;;5111500;28;20032;-66
2021/10/04 08:31:41;;;;;;;8.60;6.95;;;1050.20;588.80;;;;;;5112439;28;20035;-66
2021/10/04 08:34:07;;;;;;;7.53;6.70;;;1024.30;614.40;;;;;;5110530;28;20030;-67
2021/10/04 08:36:34;;;;;;;10.02;6.68;;;1050.00;588.80;;;;;;5111243;28;20012;-67
2021/10/04 08:39:02;;;;;;;10.18;6.75;;;1050.50;563.20;;;;;;5111764;28;20028;-66
2021/10/04 08:41:28;;;;;;;7.97;7.10;;;1050.30;588.80;;;;;;5110729;28;20027;-66
2021/10/04 08:43:55;;;;;;;9.85;6.85;;;1076.00;512.00;;;;;;5111811;28;20372;-65
2021/10/04 08:46:22;;;;;;;9.40;6.85;;;1076.00;537.60;;;;;;5111547;28;20023;-69
2021/10/04 08:48:48;;;;;;;8.18;6.80;;;1075.50;537.60;;;;;;5111953;28;20024;-67
2021/10/04 08:51:14;;;;;;;9.18;6.80;;;1050.30;563.20;;;;;;5110334;28;20161;-68
2021/10/04 08:53:41;;;;;;;8.68;6.68;;;1050.40;563.20;;;;;;5111829;28;20015;-69
2021/10/04 08:56:08;;;;;;;8.18;6.30;;;1075.30;563.20;;;;;;5111908;28;20503;-67
2021/10/04 08:58:35;;;;;;;7.97;6.65;;;1075.80;512.00;;;;;;5111077;28;20023;-67
2021/10/04 09:01:02;;;;;;;9.02;6.60;;;1101.50;512.00;;;;;;5110324;28;20039;-69
2021/10/04 09:03:54;;;;;;;8.65;6.50;;;1126.40;537.60;;;;;;5111291;28;20555;-67
2021/10/04 09:06:33;;;;;;;17.70;7.50;;;1126.40;537.60;;;;;;5110946;28;20031;-68
2021/10/04 09:08:59;;;;;;;11.57;7.63;;;1101.30;512.00;;;;;;5109904;28;20054;-69
2021/10/04 09:11:42;;;;;;;9.10;6.85;;;1101.30;512.00;;;;;;5111357;28;20127;-69
2021/10/04 09:14:17;;;;;;;9.82;7.05;;;1126.40;512.00;;;;;;5111402;28;20020;-67
2021/10/04 09:16:54;;;;;;;8.65;6.85;;;1126.60;512.00;;;;;;5111805;28;20034;-69
2021/10/04 09:19:24;;;;;;;9.75;7.03;;;1126.60;512.00;;;;;;5111279;28;20040;-69
2021/10/04 09:22:09;;;;;;;7.22;6.22;;;1152.00;486.40;;;;;;5115634;28;20020;-68
2021/10/04 09:24:38;;;;;;;8.82;6.68;;;1126.70;486.40;;;;;;5114949;28;20027;-69
2021/10/04 09:27:31;;;;;;;10.57;6.80;;;1152.00;460.80;;;;;;5116021;28;20160;-69
2021/10/04 09:29:58;;;;;;;7.75;6.50;;;1127.00;486.40;;;;;;5115764;28;20042;-69
2021/10/04 09:32:25;;;;;;;8.55;6.18;;;1126.50;512.00;;;;;;5115341;28;20039;-69
2021/10/04 09:35:09;;;;;;;8.32;6.60;;;1127.30;460.80;;;;;;5115547;28;20410;-69
2021/10/04 09:37:34;;;;;;;7.95;6.50;;;1126.80;486.40;;;;;;5112985;28;20388;-70
2021/10/04 09:40:02;;;;;;;10.63;6.95;;;1152.60;460.80;;;;;;5115501;28;20042;-68
2021/10/04 09:42:27;;;;;;;7.40;6.47;;;1152.80;460.80;;;;;;5114843;28;20047;-68
2021/10/04 09:45:00;;;;;;;10.50;6.63;;;1178.10;435.20;;;;;;5115769;28;20116;-69
2021/10/04 09:47:28;;;;;;;7.37;6.30;;;1178.10;409.60;;;;;;5114777;28;20023;-68
2021/10/04 09:50:00;;;;;;;8.60;6.75;;;1203.20;435.20;;;;;;5115659;28;20276;-68
2021/10/04 09:52:38;;;;;;;9.10;6.47;;;1203.70;435.20;;;;;;5112817;28;20109;-69
2021/10/04 09:55:22;;;;;;;7.75;6.10;;;1203.20;435.20;;;;;;5115306;28;20038;-69
2021/10/04 09:58:00;;;;;;;12.38;6.60;;;1203.30;435.20;;;;;;5115901;28;20023;-70
2021/10/04 10:00:29;;;;;;;9.13;6.97;;;1203.50;435.20;;;;;;5114555;28;20031;-68
2021/10/04 10:02:55;;;;;;;11.32;8.85;;;1203.70;435.20;;;;;;5115263;28;20030;-67
2021/10/04 10:05:26;;;;;;;9.95;7.75;;;1204.10;435.20;;;;;;5114237;28;20407;-69
2021/10/04 10:07:52;;;;;;;8.38;7.03;;;1203.60;435.20;;;;;;5114487;28;20177;-69
2021/10/04 10:10:19;;;;;;;50.38;9.52;;;1228.90;460.80;;;;;;5113990;28;20036;-68
2021/10/04 10:12:46;;;;;;;13.65;10.38;;;1229.10;460.80;;;;;;5115383;28;20380;-69
2021/10/04 10:15:22;;;;;;;10.65;8.43;;;1229.60;460.80;;;;;;5114544;28;20023;-69
2021/10/04 10:17:50;;;;;;;15.70;10.05;;;1229.20;460.80;;;;;;5114732;28;20500;-69
2021/10/04 10:20:21;;;;;;;13.98;8.65;;;1229.30;460.80;;;;;;5112659;28;20115;-68
2021/10/04 10:22:52;;;;;;;9.30;7.65;;;1229.30;460.80;;;;;;5114805;28;20110;-68
2021/10/04 10:25:27;;;;;;;10.05;7.63;;;1254.80;486.40;;;;;;5113720;27;20442;-69
2021/10/04 10:27:53;;;;;;;10.90;7.97;;;1280.10;486.40;;;;;;5114969;28;20027;-69
2021/10/04 10:30:21;;;;;;;9.13;6.40;;;1255.00;486.40;;;;;;5113156;28;20024;-69
2021/10/04 10:32:47;;;;;;;7.40;6.60;;;1229.40;460.80;;;;;;5114690;28;20039;-69
2021/10/04 10:35:13;;;;;;;8.88;6.18;;;1229.60;460.80;;;;;;5113485;28;20091;-68
2021/10/04 10:37:51;;;;;;;8.93;7.10;;;1229.30;460.80;;;;;;5114199;28;20089;-69
2021/10/04 10:40:18;;;;;;;11.95;8.68;;;1229.40;460.80;;;;;;5113472;28;20092;-68
2021/10/04 10:43:09;;;;;;;11.13;6.60;;;1229.10;460.80;;;;;;5114445;28;20084;-68
2021/10/04 10:45:43;;;;;;;6.57;5.97;;;1229.40;460.80;;;;;;5095422;28;20093;-67
2021/10/04 10:48:09;;;;;;;7.47;6.68;;;1203.70;435.20;;;;;;5114794;28;20024;-68
2021/10/04 10:50:49;;;;;;;9.05;6.75;;;1229.30;460.80;;;;;;5112054;28;20032;-68
2021/10/04 10:53:27;;;;;;;9.57;7.65;;;1228.90;460.80;;;;;;5110577;28;20139;-68
2021/10/04 10:55:57;;;;;;;10.50;6.60;;;1203.80;435.20;;;;;;5110017;28;20038;-68
2021/10/04 10:58:26;;;;;;;11.07;6.70;;;1203.70;435.20;;;;;;5112463;28;20027;-69
2021/10/04 11:01:00;;;;;;;8.00;7.20;;;1204.00;435.20;;;;;;5110313;27;20046;-70
2021/10/04 11:03:27;;;;;;;9.32;6.78;;;1229.20;460.80;;;;;;5112115;28;20133;-69
2021/10/04 11:06:08;;;;;;;10.82;8.52;;;1203.70;435.20;;;;;;5112038;27;20027;-70
2021/10/04 11:08:42;;;;;;;8.40;6.43;;;1152.50;486.40;;;;;;5110195;28;20525;-68
2021/10/04 11:11:12;;;;;;;8.93;6.30;;;1152.90;460.80;;;;;;5112006;28;20028;-69
2021/10/04 11:14:07;;;;;;;9.52;6.40;;;1177.90;460.80;;;;;;5110500;28;20059;-70
2021/10/04 11:16:39;;;;;;;8.02;6.15;;;1228.90;460.80;;;;;;5110477;28;20024;-69
2021/10/04 11:19:06;;;;;;;9.07;6.50;;;1229.40;460.80;;;;;;5114408;28;20035;-69
2021/10/04 11:21:34;;;;;;;6.75;6.10;;;1203.30;435.20;;;;;;5114158;28;20096;-68
2021/10/04 11:24:03;;;;;;;7.65;6.55;;;1178.00;460.80;;;;;;5114308;28;20051;-68
2021/10/04 11:26:31;;;;;;;7.00;6.07;;;1203.80;435.20;;;;;;5114439;28;20020;-68
2021/10/04 11:29:00;;;;;;;9.48;6.10;;;1177.90;460.80;;;;;;5111766;28;20050;-68
2021/10/04 11:31:29;;;;;;;9.95;6.28;;;1152.90;460.80;;;;;;5113476;27;20377;-68
2021/10/04 11:34:16;;;;;;;24.20;17.17;;;1203.20;460.80;;;;;;5113600;28;20129;-68
2021/10/04 11:36:54;;;;;;;7.45;6.35;;;1178.50;435.20;;;;;;5113613;28;20110;-69
2021/10/04 11:39:26;;;;;;;15.05;11.35;;;1204.10;435.20;;;;;;5113701;28;20032;-69
2021/10/04 11:42:03;;;;;;;8.20;6.40;;;1203.70;435.20;;;;;;5112594;28;20476;-68
2021/10/04 11:44:30;;;;;;;11.75;7.05;;;1229.20;460.80;;;;;;5114973;28;20341;-68
2021/10/04 11:47:03;;;;;;;8.65;6.93;;;1229.70;460.80;;;;;;5114934;28;20024;-68
2021/10/04 11:49:36;;;;;;;;;;;1254.40;486.40;;;;;;5115593;28;20024;-70
2021/10/04 11:52:06;;;;;;;7.47;5.90;;;1254.90;486.40;;;;;;5115023;28;19916;-69
2021/10/04 11:54:40;;;;;;;8.10;6.13;;;1254.50;486.40;;;;;;5113208;28;20144;-68
2021/10/04 11:57:27;;;;;;;7.13;6.05;;;1254.50;486.40;;;;;;5111428;28;20045;-68
2021/10/04 11:59:54;;;;;;;6.97;5.85;;;1229.40;460.80;;;;;;5111133;28;20020;-68
2021/10/04 12:02:40;;;;;;;6.68;5.65;;;1229.40;460.80;;;;;;5113730;28;20027;-68
2021/10/04 12:05:14;;;;;;;7.13;6.22;;;1229.70;460.80;;;;;;5110329;28;20016;-68
2021/10/04 12:08:02;;;;;;;7.38;6.10;;;1255.00;486.40;;;;;;5110587;28;20965;-68
2021/10/04 12:10:58;;;;;;;6.05;5.55;;;1255.20;486.40;;;;;;5112277;28;20109;-69